Time;durP1;ratioP1;P1;durP2;ratioP2;P2;SDS_P1;SDS_P2;PMS_P1;PMS_P2;Temp;Humidity;BMP_temperature;BMP_pressure;BME280_temperature;BME280_humidity;BME280_pressure;Samples;Min_cycle;Max_cycle;Signal;HPM_P1;HPM_P2
2022/01/28 00:04:51;;;;;;;20.27;3.10;;;5.60;99.90;;;;;;5015865;28;20068;-75
2022/01/28 00:07:16;;;;;;;17.52;2.72;;;5.70;99.90;;;;;;5022805;28;20060;-75
2022/01/28 00:09:42;;;;;;;21.30;2.63;;;5.50;99.90;;;;;;5018798;28;20046;-75
2022/01/28 00:12:09;;;;;;;24.33;2.80;;;5.40;99.90;;;;;;4997427;28;20050;-75
2022/01/28 00:15:04;;;;;;;17.73;2.58;;;5.50;99.90;;;;;;4990017;28;20049;-76
2022/01/28 00:38:55;;;;;;;20.38;2.63;;;5.60;99.90;;;;;;4998154;28;20061;-75
2022/01/28 00:41:21;;;;;;;13.80;2.40;;;5.60;99.90;;;;;;5023225;28;20041;-76
2022/01/28 00:43:47;;;;;;;20.40;2.17;;;5.60;99.90;;;;;;5006221;28;20093;-75
2022/01/28 00:46:13;;;;;;;9.45;2.20;;;5.60;99.90;;;;;;5005000;28;20046;-76
2022/01/28 00:48:39;;;;;;;11.40;1.80;;;6.30;99.90;;;;;;5012815;28;20192;-76
2022/01/28 00:51:06;;;;;;;19.17;2.72;;;5.50;99.90;;;;;;4997475;28;20085;-76
2022/01/28 00:53:31;;;;;;;18.55;2.83;;;6.00;99.90;;;;;;5015918;28;20048;-75
2022/01/28 00:55:57;;;;;;;15.43;2.10;;;5.70;99.90;;;;;;5024695;28;20413;-76
2022/01/28 00:58:24;;;;;;;16.58;2.20;;;5.50;99.90;;;;;;4986536;28;20061;-75
2022/01/28 01:00:51;;;;;;;18.77;2.67;;;5.70;99.90;;;;;;4995986;28;20502;-76
2022/01/28 01:03:17;;;;;;;18.20;2.28;;;5.40;99.90;;;;;;5012527;28;20100;-76
2022/01/28 01:05:43;;;;;;;14.27;2.30;;;5.50;99.90;;;;;;4995968;28;20061;-76
2022/01/28 01:08:09;;;;;;;16.13;1.88;;;5.50;99.90;;;;;;4996190;28;20045;-75
2022/01/28 01:10:35;;;;;;;18.13;2.95;;;5.50;99.90;;;;;;4997048;28;20442;-75
2022/01/28 01:13:01;;;;;;;14.93;1.92;;;5.60;99.90;;;;;;4996253;28;20129;-76
2022/01/28 01:15:33;;;;;;;15.80;2.58;;;5.70;99.90;;;;;;5012161;28;20045;-76
2022/01/28 01:18:19;;;;;;;;;;;6.40;99.90;;;;;;5012166;28;20081;-76
2022/01/28 01:23:21;;;;;;;12.63;2.00;;;5.60;99.90;;;;;;5031065;28;20089;-75
2022/01/28 01:25:55;;;;;;;10.90;1.88;;;5.50;99.90;;;;;;4996400;28;20054;-76
2022/01/28 01:28:27;;;;;;;17.10;3.33;;;5.70;99.90;;;;;;5006068;28;20049;-76
2022/01/28 01:30:53;;;;;;;;;;;5.30;99.90;;;;;;5001725;28;20084;-75
2022/01/28 01:33:20;;;;;;;13.85;1.83;;;5.20;99.90;;;;;;5025130;28;20460;-75
2022/01/28 01:35:46;;;;;;;13.18;1.55;;;5.20;99.90;;;;;;5011133;28;20065;-76
2022/01/28 01:38:12;;;;;;;20.50;2.78;;;5.40;99.90;;;;;;5012013;28;20057;-75
2022/01/28 01:40:48;;;;;;;19.60;2.60;;;5.50;99.90;;;;;;5000993;28;20059;-75
2022/01/28 01:43:30;;;;;;;14.38;2.20;;;5.00;99.90;;;;;;4995796;28;20487;-75
2022/01/28 01:54:04;;;;;;;18.40;3.25;;;5.20;99.90;;;;;;5015959;28;20050;-75
2022/01/28 01:56:32;;;;;;;20.50;3.08;;;5.10;99.90;;;;;;4978937;28;20077;-75
2022/01/28 01:58:58;;;;;;;22.88;2.15;;;5.20;99.90;;;;;;5011809;28;20045;-75
2022/01/28 02:01:24;;;;;;;20.83;2.95;;;5.60;99.90;;;;;;5007334;28;20038;-75
2022/01/28 02:03:50;;;;;;;19.42;2.03;;;5.40;99.90;;;;;;5022691;28;20078;-75
2022/01/28 02:06:20;;;;;;;17.60;2.20;;;5.70;99.90;;;;;;5011714;28;20068;-75
2022/01/28 02:08:46;;;;;;;17.13;2.63;;;5.80;99.90;;;;;;4995131;28;20089;-75
2022/01/28 02:11:12;;;;;;;17.85;2.08;;;6.00;99.90;;;;;;5034875;28;20054;-75
2022/01/28 02:13:40;;;;;;;17.83;2.90;;;5.40;99.90;;;;;;5011154;28;20074;-75
2022/01/28 02:16:07;;;;;;;19.52;2.83;;;5.50;99.90;;;;;;5011922;28;20057;-75
2022/01/28 02:18:33;;;;;;;13.27;2.10;;;5.50;99.90;;;;;;5010766;28;20483;-74
2022/01/28 02:21:09;;;;;;;16.20;2.50;;;5.50;99.90;;;;;;5011262;28;20052;-75
2022/01/28 02:23:35;;;;;;;22.85;2.97;;;5.10;99.90;;;;;;5010781;28;20049;-75
2022/01/28 02:26:02;;;;;;;19.80;2.50;;;5.50;99.90;;;;;;4995112;28;20053;-75
2022/01/28 02:28:32;;;;;;;13.07;2.90;;;5.70;99.90;;;;;;5011695;28;20085;-75
2022/01/28 02:30:58;;;;;;;15.98;3.33;;;5.60;99.90;;;;;;5018685;28;20544;-75
2022/01/28 02:33:25;;;;;;;23.20;2.88;;;5.60;99.90;;;;;;5013960;28;20137;-75
2022/01/28 02:35:52;;;;;;;24.55;3.42;;;6.00;99.90;;;;;;5000232;28;20058;-75
2022/01/28 02:38:21;;;;;;;28.33;3.50;;;5.60;99.90;;;;;;5014530;28;20061;-75
2022/01/28 02:40:54;;;;;;;22.45;3.05;;;5.60;99.90;;;;;;5023399;28;20075;-75
2022/01/28 02:45:50;;;;;;;25.10;3.20;;;6.50;99.90;;;;;;5022488;28;20059;-75
2022/01/28 02:48:24;;;;;;;25.33;4.38;;;5.70;99.90;;;;;;5018060;28;20046;-75
2022/01/28 02:53:25;;;;;;;24.40;3.40;;;5.70;99.90;;;;;;5010686;28;20136;-75
2022/01/28 02:55:58;;;;;;;18.48;2.85;;;5.70;99.90;;;;;;4997341;28;20057;-75
2022/01/28 02:58:25;;;;;;;14.55;3.13;;;5.80;99.90;;;;;;4985198;28;20045;-75
2022/01/28 03:00:54;;;;;;;20.58;3.00;;;5.80;99.90;;;;;;4997482;28;20037;-75
2022/01/28 03:03:23;;;;;;;27.05;3.28;;;6.00;99.90;;;;;;5010640;28;20132;-75
2022/01/28 03:05:52;;;;;;;13.68;3.00;;;6.60;99.90;;;;;;4994417;28;20417;-75
2022/01/28 03:08:22;;;;;;;23.20;3.10;;;6.00;99.90;;;;;;5012724;28;20144;-75
2022/01/28 03:13:59;;;;;;;18.83;2.78;;;5.90;99.90;;;;;;4974549;28;20529;-74
2022/01/28 03:16:29;;;;;;;18.30;2.78;;;6.20;99.90;;;;;;5013650;28;20046;-74
2022/01/28 03:19:19;;;;;;;16.70;2.50;;;6.00;99.90;;;;;;4991435;28;20065;-75
2022/01/28 03:21:44;;;;;;;21.33;3.17;;;6.50;99.90;;;;;;4989060;28;20490;-75
2022/01/28 03:24:12;;;;;;;12.70;2.15;;;6.10;99.90;;;;;;4978032;28;20050;-75
2022/01/28 03:26:38;;;;;;;16.33;2.90;;;6.10;99.90;;;;;;5001520;28;20049;-75
2022/01/28 03:29:05;;;;;;;18.25;2.70;;;6.10;99.90;;;;;;4995976;28;20049;-74
2022/01/28 03:31:30;;;;;;;13.93;2.08;;;6.90;99.90;;;;;;4997948;28;20487;-75
2022/01/28 03:33:56;;;;;;;18.75;2.55;;;6.20;99.90;;;;;;5015503;28;20232;-75
2022/01/28 03:36:22;;;;;;;13.43;2.22;;;6.20;99.90;;;;;;4988506;28;20053;-74
2022/01/28 03:38:48;;;;;;;21.17;2.58;;;7.20;99.90;;;;;;5013942;28;20046;-75
2022/01/28 03:41:18;;;;;;;17.92;3.22;;;6.70;99.90;;;;;;4985716;28;20046;-75
2022/01/28 03:43:44;;;;;;;21.75;2.88;;;6.20;99.90;;;;;;5013854;28;20407;-74
2022/01/28 03:46:10;;;;;;;20.33;3.05;;;6.20;99.90;;;;;;4997629;28;20430;-75
2022/01/28 03:48:36;;;;;;;15.02;2.35;;;6.20;99.90;;;;;;5005533;28;20516;-75
2022/01/28 03:51:02;;;;;;;11.52;2.50;;;6.90;99.90;;;;;;4980480;28;20081;-75
2022/01/28 03:53:28;;;;;;;15.02;2.72;;;6.20;99.90;;;;;;4983188;28;20045;-75
2022/01/28 03:55:57;;;;;;;16.65;2.35;;;6.20;99.90;;;;;;4992869;28;20045;-76
2022/01/28 03:58:22;;;;;;;16.40;2.70;;;7.00;99.90;;;;;;5015036;28;20049;-75
2022/01/28 04:00:48;;;;;;;18.67;2.53;;;7.10;99.90;;;;;;4983285;28;20487;-75
2022/01/28 04:13:54;;;;;;;15.95;2.75;;;6.20;99.90;;;;;;5013160;28;20046;-75
2022/01/28 04:18:46;;;;;;;19.00;3.22;;;6.10;99.90;;;;;;5013330;28;20052;-75
2022/01/28 04:21:12;;;;;;;22.60;3.00;;;6.20;99.90;;;;;;5013587;28;20046;-74
2022/01/28 04:23:38;;;;;;;25.25;3.30;;;6.10;99.90;;;;;;4996642;28;20057;-75
2022/01/28 04:26:03;;;;;;;16.45;2.47;;;6.30;99.90;;;;;;5004633;28;20049;-75
2022/01/28 04:28:29;;;;;;;20.65;3.45;;;6.10;99.90;;;;;;5025483;28;20474;-74
2022/01/28 04:30:55;;;;;;;15.07;2.17;;;6.20;99.90;;;;;;4997834;28;20053;-74
2022/01/28 04:33:21;;;;;;;17.70;2.55;;;6.90;99.90;;;;;;4997959;28;20041;-74
2022/01/28 04:35:50;;;;;;;15.40;2.83;;;6.40;99.90;;;;;;5012451;28;20414;-75
2022/01/28 04:38:37;;;;;;;19.65;2.95;;;6.50;99.90;;;;;;5013422;28;20054;-75
2022/01/28 04:41:29;;;;;;;21.48;3.40;;;6.30;99.90;;;;;;4983346;28;20128;-75
2022/01/28 04:43:59;;;;;;;20.08;3.20;;;6.20;99.90;;;;;;5014697;28;20057;-75
2022/01/28 04:47:09;;;;;;;14.35;2.60;;;6.30;99.90;;;;;;4997503;28;20487;-75
2022/01/28 04:49:40;;;;;;;26.58;3.38;;;6.80;99.90;;;;;;4999650;28;20049;-74
2022/01/28 04:57:36;;;;;;;21.85;2.78;;;7.00;99.90;;;;;;5000551;28;20104;-75
2022/01/28 05:06:20;;;;;;;23.20;3.08;;;6.60;99.90;;;;;;4997060;28;20136;-75
2022/01/28 05:27:04;;;;;;;28.70;4.05;;;6.00;99.90;;;;;;5018032;28;20076;-74
2022/01/28 05:29:29;;;;;;;31.05;4.38;;;6.00;99.90;;;;;;5005201;28;20495;-74
2022/01/28 05:31:55;;;;;;;18.40;3.75;;;6.00;99.90;;;;;;4995708;28;20061;-74
2022/01/28 05:34:25;;;;;;;21.90;2.95;;;6.10;99.90;;;;;;5025976;28;20129;-74
2022/01/28 05:36:51;;;;;;;18.65;3.35;;;6.30;99.90;;;;;;5011718;28;20132;-74
2022/01/28 05:39:18;;;;;;;20.48;2.92;;;6.10;99.90;;;;;;5011606;28;20050;-74
2022/01/28 05:41:44;;;;;;;19.95;3.50;;;6.10;99.90;;;;;;4999451;28;20125;-74
2022/01/28 05:44:10;;;;;;;23.42;3.72;;;6.60;99.90;;;;;;4994543;28;20057;-74
2022/01/28 05:46:36;;;;;;;25.08;3.55;;;6.10;99.90;;;;;;4995545;28;20046;-74
2022/01/28 05:49:02;;;;;;;23.60;3.33;;;6.20;99.90;;;;;;4995192;28;20507;-74
2022/01/28 05:51:28;;;;;;;17.02;2.85;;;6.10;99.90;;;;;;4995162;28;20045;-74
2022/01/28 05:53:57;;;;;;;28.13;2.95;;;6.10;99.90;;;;;;5011214;28;20054;-74
2022/01/28 05:56:26;;;;;;;22.48;3.35;;;6.10;99.90;;;;;;4979689;28;20056;-74
2022/01/28 05:58:53;;;;;;;23.83;3.20;;;6.10;99.90;;;;;;5011796;28;20049;-74
2022/01/28 06:01:20;;;;;;;28.58;3.22;;;6.90;99.90;;;;;;4978295;28;20619;-74
2022/01/28 06:03:47;;;;;;;18.90;3.22;;;6.50;99.90;;;;;;4994647;28;20057;-74
2022/01/28 06:06:21;;;;;;;24.45;3.58;;;6.80;99.90;;;;;;5011439;28;20054;-74
2022/01/28 06:08:52;;;;;;;27.02;4.13;;;6.00;99.90;;;;;;4995029;28;20049;-74
2022/01/28 06:11:18;;;;;;;17.70;3.20;;;5.90;99.90;;;;;;5010699;28;20046;-74
2022/01/28 06:13:44;;;;;;;25.90;3.00;;;6.60;99.90;;;;;;5009961;28;20042;-74
2022/01/28 06:16:14;;;;;;;22.92;3.25;;;6.50;99.90;;;;;;5027448;28;20056;-74
2022/01/28 06:18:40;;;;;;;20.60;3.40;;;5.90;99.90;;;;;;5010888;28;20498;-74
2022/01/28 06:21:06;;;;;;;28.25;3.83;;;5.90;99.90;;;;;;4994560;28;20072;-74
2022/01/28 06:23:33;;;;;;;27.13;3.53;;;5.90;99.90;;;;;;4993999;28;20049;-74
2022/01/28 06:25:59;;;;;;;28.30;3.72;;;5.80;99.90;;;;;;4994908;28;20393;-74
2022/01/28 06:28:25;;;;;;;20.80;3.70;;;5.80;99.90;;;;;;5010144;28;20069;-74
2022/01/28 06:30:51;;;;;;;17.13;3.13;;;6.10;99.90;;;;;;5010106;28;20085;-74
2022/01/28 06:33:17;;;;;;;17.05;3.05;;;5.70;99.90;;;;;;4993597;28;20045;-74
2022/01/28 06:35:44;;;;;;;19.27;2.55;;;5.70;99.90;;;;;;4994088;28;20406;-74
2022/01/28 06:38:10;;;;;;;18.38;3.05;;;5.80;99.90;;;;;;5011058;28;20053;-74
2022/01/28 06:40:37;;;;;;;16.08;2.80;;;6.50;99.90;;;;;;4991232;28;20438;-74
2022/01/28 06:43:03;;;;;;;23.63;3.42;;;6.20;99.90;;;;;;5004886;28;20089;-74
2022/01/28 06:45:28;;;;;;;21.85;2.97;;;5.80;99.90;;;;;;5010435;28;20057;-74
2022/01/28 06:47:54;;;;;;;15.40;2.35;;;5.90;99.90;;;;;;4994494;28;20046;-74
2022/01/28 06:50:20;;;;;;;18.67;2.80;;;6.20;99.90;;;;;;5010555;28;20041;-74
2022/01/28 06:52:46;;;;;;;18.40;2.38;;;5.70;99.90;;;;;;5026877;28;20069;-74
2022/01/28 06:55:16;;;;;;;14.85;2.90;;;5.70;99.90;;;;;;5009979;28;20068;-74
2022/01/28 06:57:43;;;;;;;20.30;2.38;;;6.00;99.90;;;;;;5010779;28;20042;-74
2022/01/28 07:00:10;;;;;;;23.48;2.92;;;5.60;99.90;;;;;;4978065;28;20064;-74
2022/01/28 07:02:36;;;;;;;17.65;2.33;;;5.60;99.90;;;;;;4994332;28;20045;-74
2022/01/28 07:05:04;;;;;;;21.92;2.92;;;5.60;99.90;;;;;;5013101;28;20038;-74
2022/01/28 07:07:30;;;;;;;23.33;3.13;;;5.50;99.90;;;;;;4998075;28;20047;-74
2022/01/28 07:09:56;;;;;;;24.30;3.08;;;5.60;99.90;;;;;;4981696;28;20554;-74
2022/01/28 07:12:22;;;;;;;22.58;3.60;;;6.30;99.90;;;;;;5014559;28;20125;-74
2022/01/28 07:14:49;;;;;;;18.35;2.95;;;5.90;99.90;;;;;;5013467;28;20486;-74
2022/01/28 07:17:15;;;;;;;22.63;3.35;;;6.30;99.90;;;;;;5013739;28;20056;-74
2022/01/28 07:19:41;;;;;;;23.35;3.03;;;5.60;99.90;;;;;;5013775;28;20562;-74
2022/01/28 07:22:07;;;;;;;26.25;3.17;;;5.60;99.90;;;;;;4997972;28;20180;-74
2022/01/28 07:24:33;;;;;;;23.20;3.20;;;5.90;99.90;;;;;;4997527;28;20400;-74
2022/01/28 07:26:59;;;;;;;24.58;3.00;;;5.60;99.90;;;;;;4981937;28;20380;-75
2022/01/28 07:29:29;;;;;;;22.52;2.95;;;5.50;99.90;;;;;;5013901;28;20656;-74
2022/01/28 07:31:55;;;;;;;22.17;2.97;;;5.50;99.90;;;;;;5014028;28;20042;-74
2022/01/28 07:34:22;;;;;;;21.42;3.45;;;5.40;99.90;;;;;;4997158;28;20078;-74
2022/01/28 07:36:48;;;;;;;20.98;2.10;;;5.40;99.90;;;;;;5013726;28;20057;-74
2022/01/28 07:39:14;;;;;;;17.27;3.00;;;5.30;99.90;;;;;;4997464;28;20064;-74
2022/01/28 07:41:40;;;;;;;15.77;2.80;;;5.40;99.90;;;;;;5013934;28;20050;-74
2022/01/28 07:44:06;;;;;;;20.95;3.17;;;4.50;99.90;;;;;;4980642;28;20081;-73
2022/01/28 07:46:32;;;;;;;20.63;3.65;;;5.30;99.90;;;;;;4997511;28;20129;-73
2022/01/28 07:48:58;;;;;;;16.90;2.55;;;5.30;99.90;;;;;;4997294;28;20491;-72
2022/01/28 07:51:24;;;;;;;17.55;3.15;;;5.20;99.90;;;;;;5013796;28;20053;-73
2022/01/28 07:53:50;;;;;;;19.27;2.60;;;5.90;99.90;;;;;;5013077;28;20104;-75
2022/01/28 07:56:16;;;;;;;25.58;3.40;;;5.70;99.90;;;;;;5012832;28;20085;-76
2022/01/28 07:58:42;;;;;;;23.05;3.53;;;5.60;99.90;;;;;;5010424;28;20074;-75
2022/01/28 08:01:08;;;;;;;27.52;3.47;;;5.30;99.90;;;;;;5010314;28;20038;-76
2022/01/28 08:03:34;;;;;;;19.45;2.97;;;5.50;99.90;;;;;;5013293;28;20046;-76
2022/01/28 08:06:00;;;;;;;27.92;3.72;;;5.60;99.90;;;;;;4995467;28;20048;-73
2022/01/28 08:08:26;;;;;;;19.60;2.83;;;5.30;99.90;;;;;;5013692;28;20455;-73
2022/01/28 08:10:51;;;;;;;22.15;3.25;;;5.30;99.90;;;;;;4996113;28;20056;-73
2022/01/28 08:13:18;;;;;;;22.23;3.17;;;5.30;99.90;;;;;;4996595;28;20490;-73
2022/01/28 08:15:44;;;;;;;24.75;3.78;;;5.70;99.90;;;;;;5017845;28;20053;-74
2022/01/28 08:18:10;;;;;;;24.42;3.40;;;5.20;99.90;;;;;;5013479;28;20395;-74
2022/01/28 08:20:36;;;;;;;21.75;3.15;;;5.30;99.90;;;;;;5013588;28;20132;-75
2022/01/28 08:23:02;;;;;;;25.52;3.38;;;5.20;99.90;;;;;;4979096;28;20133;-74
2022/01/28 08:25:31;;;;;;;21.42;3.92;;;5.20;99.90;;;;;;4996674;28;20061;-75
2022/01/28 08:27:58;;;;;;;25.90;2.80;;;5.20;99.90;;;;;;5012790;28;20081;-75
2022/01/28 08:30:26;;;;;;;29.95;3.78;;;5.50;99.90;;;;;;4996453;28;20401;-75
2022/01/28 08:32:52;;;;;;;21.08;3.13;;;5.60;99.90;;;;;;5012583;28;20478;-75
2022/01/28 08:35:39;;;;;;;21.77;2.97;;;5.30;99.90;;;;;;4995768;28;20157;-75
2022/01/28 08:38:14;;;;;;;26.92;3.45;;;5.50;99.90;;;;;;4996929;28;20050;-74
2022/01/28 08:40:40;;;;;;;27.33;3.42;;;5.60;99.90;;;;;;5012939;28;20502;-75
2022/01/28 08:43:06;;;;;;;31.55;3.75;;;6.10;99.90;;;;;;5012091;28;20042;-75
2022/01/28 08:45:32;;;;;;;21.05;3.13;;;6.40;99.90;;;;;;4996187;28;20056;-79
2022/01/28 08:47:57;;;;;;;20.58;2.95;;;5.70;99.90;;;;;;5012899;28;20042;-74
2022/01/28 08:50:23;;;;;;;20.42;3.05;;;5.80;99.90;;;;;;4994194;28;20383;-74
2022/01/28 08:52:49;;;;;;;23.60;2.85;;;5.80;99.90;;;;;;5015016;28;20045;-74
2022/01/28 08:55:15;;;;;;;22.25;2.88;;;5.80;99.90;;;;;;4993712;28;20049;-74
2022/01/28 08:57:43;;;;;;;24.67;3.33;;;5.90;99.90;;;;;;4983819;28;20384;-74
2022/01/28 09:00:18;;;;;;;22.33;3.00;;;6.00;99.90;;;;;;5012325;28;20490;-74
2022/01/28 09:02:44;;;;;;;18.67;3.53;;;6.10;99.90;;;;;;4996220;28;20196;-74
2022/01/28 09:05:11;;;;;;;24.98;3.30;;;6.20;99.90;;;;;;5011836;28;20111;-74
2022/01/28 09:07:36;;;;;;;22.42;3.03;;;6.30;99.90;;;;;;4996051;28;20135;-74
2022/01/28 09:10:10;;;;;;;24.70;3.92;;;7.10;99.90;;;;;;4996916;28;20096;-74
2022/01/28 09:13:10;;;;;;;21.40;3.30;;;6.40;99.90;;;;;;5011789;28;20057;-74
2022/01/28 09:15:41;;;;;;;21.92;2.78;;;7.10;99.90;;;;;;5022141;28;20444;-74
2022/01/28 09:18:09;;;;;;;19.60;2.58;;;6.40;99.90;;;;;;5007166;28;20041;-74
2022/01/28 09:20:36;;;;;;;21.58;3.10;;;6.60;99.90;;;;;;5017785;28;20053;-74
2022/01/28 09:23:04;;;;;;;17.90;2.88;;;6.50;99.90;;;;;;5009967;28;20378;-74
2022/01/28 09:25:31;;;;;;;23.20;3.08;;;7.30;99.90;;;;;;5017584;28;20057;-75
2022/01/28 09:27:57;;;;;;;15.57;3.10;;;7.00;99.90;;;;;;5012498;28;20400;-74
2022/01/28 09:30:23;;;;;;;20.83;2.88;;;7.30;99.90;;;;;;4998180;28;20053;-74
2022/01/28 09:32:49;;;;;;;16.92;4.38;;;7.20;99.90;;;;;;5019614;28;20045;-74
2022/01/28 09:35:15;;;;;;;22.95;3.17;;;7.20;99.90;;;;;;5012779;28;20445;-78
2022/01/28 09:37:41;;;;;;;20.10;2.90;;;7.10;99.90;;;;;;4995300;28;20487;-78
2022/01/28 09:40:08;;;;;;;28.60;3.53;;;7.10;99.90;;;;;;4994948;28;20053;-79
2022/01/28 09:42:37;;;;;;;22.90;2.90;;;7.10;99.90;;;;;;4979127;28;20038;-80
2022/01/28 09:45:07;;;;;;;17.70;2.92;;;7.70;99.90;;;;;;4994193;28;20056;-78
2022/01/28 09:47:33;;;;;;;25.40;3.53;;;7.20;99.90;;;;;;5011063;28;20125;-78
2022/01/28 09:49:59;;;;;;;20.33;2.88;;;7.20;99.90;;;;;;4995695;28;20161;-78
2022/01/28 09:52:25;;;;;;;20.13;3.00;;;7.20;99.90;;;;;;5007716;28;20506;-79
2022/01/28 09:54:51;;;;;;;9.52;2.15;;;7.20;99.90;;;;;;4994840;28;20054;-76
2022/01/28 09:57:19;;;;;;;20.88;3.72;;;6.40;99.90;;;;;;4994601;28;20516;-81
2022/01/28 09:59:45;;;;;;;18.50;2.85;;;7.20;99.90;;;;;;5011976;28;20073;-82
2022/01/28 10:02:11;;;;;;;26.85;4.07;;;7.20;99.90;;;;;;5011401;28;20124;-74
2022/01/28 10:04:37;;;;;;;18.08;3.00;;;7.20;99.90;;;;;;4977838;28;20053;-74
2022/01/28 10:07:10;;;;;;;25.30;3.10;;;7.20;99.90;;;;;;5009694;28;20041;-75
2022/01/28 10:09:36;;;;;;;22.40;2.83;;;7.40;99.90;;;;;;5010684;28;20052;-74
2022/01/28 10:12:24;;;;;;;16.42;2.60;;;7.60;99.90;;;;;;4993848;28;20050;-75
2022/01/28 10:15:16;;;;;;;24.75;3.45;;;7.80;99.90;;;;;;4979500;28;20042;-75
2022/01/28 10:17:52;;;;;;;;;;;7.90;99.90;;;;;;4997665;28;20561;-75
2022/01/28 10:20:19;;;;;;;19.85;2.63;;;7.90;99.90;;;;;;5010728;28;19928;-74
2022/01/28 10:23:01;;;;;;;16.85;2.90;;;8.00;99.90;;;;;;4962456;28;20049;-74
2022/01/28 10:25:34;;;;;;;22.77;2.72;;;8.50;99.90;;;;;;4994920;28;20629;-75
2022/01/28 10:28:05;;;;;;;23.40;2.97;;;8.00;99.90;;;;;;5010650;28;20049;-74
2022/01/28 10:30:35;;;;;;;16.58;2.72;;;8.00;99.90;;;;;;4994514;28;20057;-74
2022/01/28 10:33:14;;;;;;;14.00;2.28;;;8.00;99.90;;;;;;4994405;28;20089;-75
2022/01/28 10:36:04;;;;;;;22.25;2.22;;;7.90;99.90;;;;;;5010785;28;20054;-74
2022/01/28 10:38:35;;;;;;;24.45;3.03;;;7.80;99.90;;;;;;5010397;28;20177;-74
2022/01/28 10:41:17;;;;;;;17.75;2.70;;;7.80;99.90;;;;;;4994478;28;20064;-74
2022/01/28 10:43:52;;;;;;;21.75;2.75;;;7.30;99.90;;;;;;4990986;28;20053;-74
2022/01/28 10:46:27;;;;;;;22.88;2.92;;;7.80;99.90;;;;;;5010277;28;20445;-74
2022/01/28 10:48:59;;;;;;;16.67;2.25;;;8.00;99.90;;;;;;5010149;28;20403;-74
2022/01/28 10:51:45;;;;;;;19.50;2.70;;;8.20;99.90;;;;;;5009880;28;20084;-74
2022/01/28 10:54:13;;;;;;;16.33;2.83;;;8.40;99.90;;;;;;4993330;28;20470;-75
2022/01/28 10:56:53;;;;;;;19.75;2.45;;;8.70;99.90;;;;;;4994221;28;20054;-74
2022/01/28 10:59:42;;;;;;;20.20;2.83;;;9.10;99.90;;;;;;4993589;28;20124;-74
2022/01/28 11:02:08;;;;;;;17.38;2.85;;;9.10;99.90;;;;;;5009912;28;20065;-74
2022/01/28 11:04:34;;;;;;;19.75;2.50;;;9.20;99.90;;;;;;4994204;28;20046;-74
2022/01/28 11:07:01;;;;;;;18.42;2.72;;;9.10;99.90;;;;;;4994237;28;20057;-74
2022/01/28 11:09:29;;;;;;;15.82;2.40;;;9.20;99.90;;;;;;5010303;28;20056;-74
2022/01/28 11:11:56;;;;;;;17.17;2.88;;;9.30;99.90;;;;;;4994109;28;20120;-74
2022/01/28 11:14:23;;;;;;;18.90;2.88;;;9.40;99.90;;;;;;5009945;28;20129;-74
2022/01/28 11:16:49;;;;;;;15.85;2.85;;;9.50;99.90;;;;;;5010492;28;20058;-74
2022/01/28 11:19:18;;;;;;;18.58;2.38;;;9.60;99.90;;;;;;4993901;28;20532;-74
2022/01/28 11:21:47;;;;;;;18.98;2.90;;;9.60;99.90;;;;;;5009730;28;20048;-74
2022/01/28 11:24:31;;;;;;;15.43;4.22;;;9.50;99.90;;;;;;4993406;28;20042;-74
2022/01/28 11:27:25;;;;;;;16.95;2.78;;;9.40;99.90;;;;;;5010640;28;20128;-74
2022/01/28 11:30:11;;;;;;;19.10;2.70;;;9.20;99.90;;;;;;4993939;28;20125;-74
2022/01/28 11:33:17;;;;;;;18.70;3.00;;;9.20;99.90;;;;;;4993511;28;20054;-75
2022/01/28 11:35:46;;;;;;;16.67;2.75;;;9.00;99.90;;;;;;5006933;28;20046;-74
2022/01/28 11:38:24;;;;;;;19.83;2.47;;;8.90;99.90;;;;;;4993804;28;20100;-74
2022/01/28 11:40:52;;;;;;;16.75;2.53;;;8.90;99.90;;;;;;5009887;28;20056;-74
2022/01/28 11:43:24;;;;;;;15.38;2.65;;;8.80;99.90;;;;;;5009894;28;20045;-74
2022/01/28 11:46:15;;;;;;;20.45;2.92;;;8.90;99.90;;;;;;5009339;28;20057;-74
2022/01/28 11:49:01;;;;;;;15.60;2.53;;;8.80;99.90;;;;;;4993941;28;20049;-74
2022/01/28 11:51:38;;;;;;;18.95;2.65;;;8.80;99.90;;;;;;4996376;28;20056;-74
2022/01/28 11:54:09;;;;;;;22.90;2.92;;;8.90;99.90;;;;;;5013387;28;20049;-74
2022/01/28 11:56:57;;;;;;;23.13;2.90;;;9.60;99.90;;;;;;4997450;28;20050;-74
2022/01/28 11:59:26;;;;;;;16.90;2.75;;;8.90;99.90;;;;;;5012566;28;20418;-74
2022/01/28 12:01:52;;;;;;;21.80;6.32;;;8.80;99.90;;;;;;4997453;28;20141;-75
2022/01/28 12:04:34;;;;;;;18.15;2.47;;;8.70;99.90;;;;;;4997070;28;20338;-74
2022/01/28 12:07:09;;;;;;;19.42;3.20;;;8.70;99.90;;;;;;4997083;28;20059;-74
2022/01/28 12:09:37;;;;;;;21.50;2.80;;;8.80;99.90;;;;;;5012039;28;20050;-74
2022/01/28 12:12:07;;;;;;;15.35;3.47;;;8.90;99.90;;;;;;4997465;28;20037;-74
2022/01/28 12:17:32;;;;;;;16.98;2.58;;;9.10;99.90;;;;;;5001614;28;20553;-74
2022/01/28 12:20:21;;;;;;;16.77;2.85;;;9.10;99.90;;;;;;5012505;28;20053;-75
2022/01/28 12:23:08;;;;;;;17.60;3.00;;;9.10;99.90;;;;;;5012917;28;20096;-74
2022/01/28 12:25:46;;;;;;;21.20;2.63;;;9.00;99.90;;;;;;5013425;28;20050;-74
2022/01/28 12:28:12;;;;;;;18.52;3.38;;;8.90;99.90;;;;;;4997086;28;20052;-74
2022/01/28 12:30:39;;;;;;;19.05;3.30;;;9.20;99.90;;;;;;4996433;28;20045;-74
2022/01/28 12:33:06;;;;;;;18.48;3.38;;;9.00;99.90;;;;;;4980626;28;20439;-75
2022/01/28 12:35:32;;;;;;;19.17;3.20;;;9.10;99.90;;;;;;5012922;28;20050;-74
2022/01/28 12:38:02;;;;;;;21.08;3.28;;;9.60;99.90;;;;;;4996853;28;20128;-75
2022/01/28 12:40:35;;;;;;;17.03;2.70;;;9.80;99.90;;;;;;4996208;28;20077;-75
2022/01/28 12:43:02;;;;;;;23.45;3.03;;;9.70;99.90;;;;;;4996298;28;20076;-75
2022/01/28 12:45:27;;;;;;;19.40;2.95;;;9.40;99.90;;;;;;4996737;28;20050;-74
2022/01/28 12:47:53;;;;;;;14.00;2.38;;;9.00;99.90;;;;;;4996556;28;20060;-75
2022/01/28 12:50:20;;;;;;;15.43;2.63;;;8.90;99.90;;;;;;5009263;28;20046;-74
2022/01/28 12:52:46;;;;;;;16.92;2.53;;;9.40;99.90;;;;;;4990565;28;20061;-75
2022/01/28 12:55:13;;;;;;;11.02;2.17;;;10.10;99.90;;;;;;4996510;28;20045;-74
2022/01/28 12:57:43;;;;;;;17.98;2.83;;;10.10;99.90;;;;;;5012297;28;20080;-75
2022/01/28 13:00:09;;;;;;;13.57;2.28;;;10.20;99.90;;;;;;5012231;28;20038;-75
2022/01/28 13:02:35;;;;;;;16.60;2.92;;;10.30;99.90;;;;;;4978880;28;20058;-75
2022/01/28 13:10:25;;;;;;;14.35;2.83;;;9.60;99.90;;;;;;5011892;28;20128;-75
2022/01/28 13:12:52;;;;;;;27.63;3.17;;;9.70;99.90;;;;;;5011938;28;20434;-74
2022/01/28 13:15:20;;;;;;;20.38;2.95;;;9.30;99.90;;;;;;5012128;28;20050;-74
2022/01/28 13:17:57;;;;;;;21.50;2.50;;;9.30;99.90;;;;;;4995596;28;20049;-75
2022/01/28 13:20:25;;;;;;;19.77;2.72;;;9.60;99.90;;;;;;4995710;28;20490;-74
2022/01/28 13:22:52;;;;;;;18.27;2.92;;;9.90;99.90;;;;;;4979170;28;20045;-75
2022/01/28 13:25:22;;;;;;;21.80;3.28;;;10.20;99.90;;;;;;5011126;28;20065;-74
2022/01/28 13:27:53;;;;;;;18.98;3.33;;;10.30;99.90;;;;;;4994287;28;20057;-74
2022/01/28 13:30:19;;;;;;;12.35;2.72;;;9.90;99.90;;;;;;5011875;28;20054;-74
2022/01/28 13:32:50;;;;;;;19.38;4.13;;;9.70;99.90;;;;;;5011676;28;20050;-74
2022/01/28 13:35:16;;;;;;;17.25;3.58;;;9.50;99.90;;;;;;5015052;28;20065;-74
2022/01/28 13:37:46;;;;;;;22.65;3.20;;;9.20;99.90;;;;;;5018529;28;20099;-74
2022/01/28 13:40:30;;;;;;;24.63;3.08;;;9.30;99.90;;;;;;5013110;28;20490;-74
2022/01/28 13:43:15;;;;;;;14.13;3.28;;;9.10;99.90;;;;;;5010932;28;20050;-79
2022/01/28 13:45:49;;;;;;;20.75;3.63;;;9.10;99.90;;;;;;5010564;28;20053;-81
2022/01/28 13:48:21;;;;;;;17.52;2.63;;;8.90;99.90;;;;;;5011867;28;20066;-81
2022/01/28 13:50:52;;;;;;;15.55;2.35;;;8.80;99.90;;;;;;5012564;28;20135;-83
2022/01/28 13:55:50;;;;;;;19.20;3.28;;;9.20;99.90;;;;;;5010224;28;20534;-79
2022/01/28 13:58:17;;;;;;;18.92;3.00;;;9.40;99.90;;;;;;5010698;28;20495;-79
2022/01/28 14:00:45;;;;;;;11.55;2.47;;;9.30;99.90;;;;;;5009715;28;20053;-81
2022/01/28 14:03:24;;;;;;;14.30;2.17;;;9.30;99.90;;;;;;5027938;28;20049;-74
2022/01/28 14:05:56;;;;;;;12.40;2.22;;;9.10;99.90;;;;;;5010763;28;20049;-74
2022/01/28 14:08:45;;;;;;;14.00;2.40;;;9.10;99.90;;;;;;4994165;28;20049;-75
2022/01/28 14:11:33;;;;;;;21.15;3.08;;;9.00;99.90;;;;;;4995137;28;20550;-74
2022/01/28 14:14:25;;;;;;;14.30;2.33;;;8.90;99.90;;;;;;5008863;28;20068;-74
2022/01/28 14:16:59;;;;;;;13.88;2.60;;;8.60;99.90;;;;;;5000405;28;20041;-74
2022/01/28 14:19:26;;;;;;;13.63;2.15;;;8.40;99.90;;;;;;5008249;28;20050;-74
2022/01/28 14:21:53;;;;;;;11.10;2.17;;;8.50;99.90;;;;;;4989683;28;20442;-75
2022/01/28 14:24:21;;;;;;;18.75;3.28;;;8.40;99.90;;;;;;4999373;28;20482;-75
2022/01/28 14:31:55;;;;;;;16.73;2.85;;;8.30;99.90;;;;;;5012596;28;20069;-75
2022/01/28 14:34:22;;;;;;;20.35;3.15;;;8.30;99.90;;;;;;4985573;28;20398;-74
2022/01/28 14:36:49;;;;;;;18.27;2.72;;;8.30;99.90;;;;;;5021023;28;20062;-75
2022/01/28 14:39:15;;;;;;;17.95;3.25;;;8.40;99.90;;;;;;4964166;28;20045;-75
2022/01/28 14:41:42;;;;;;;17.15;2.50;;;8.40;99.90;;;;;;4994336;28;20560;-75
2022/01/28 14:44:08;;;;;;;13.05;1.92;;;8.60;99.90;;;;;;4993932;28;20518;-74